createdAt,value
2019-04-26T00:00:56.356Z,8.95
2019-04-26T00:03:43.362Z,11.93
2019-04-26T00:06:15.227Z,13.58
2019-04-26T00:08:47.269Z,12.18
2019-04-26T00:11:26.694Z,14.05
2019-04-26T00:14:12.309Z,11.70
2019-04-26T00:16:44.481Z,16.32
2019-04-26T00:19:14.440Z,17.30
2019-04-26T00:21:45.423Z,13.13
2019-04-26T00:24:17.236Z,19.77
2019-04-26T00:26:47.912Z,13.68
2019-04-26T00:29:18.985Z,15.68
2019-04-26T00:31:51.251Z,9.65
2019-04-26T00:34:21.742Z,10.58
2019-04-26T00:36:52.219Z,12.45
2019-04-26T00:39:24.927Z,13.38
2019-04-26T00:41:55.390Z,13.68
2019-04-26T00:44:26.007Z,14.73
2019-04-26T00:46:58.807Z,9.28
2019-04-26T00:49:42.775Z,15.18
2019-04-26T00:52:03.614Z,17.67
2019-04-26T00:54:34.797Z,19.27
2019-04-26T00:57:05.961Z,18.60
2019-04-26T00:59:37.634Z,12.70
2019-04-26T01:02:10.298Z,10.00
2019-04-26T01:04:42.279Z,13.75
2019-04-26T01:07:12.879Z,13.70
2019-04-26T01:09:44.084Z,14.58
2019-04-26T01:12:15.438Z,13.08
2019-04-26T01:14:46.893Z,10.98
2019-04-26T01:17:18.594Z,12.58
2019-04-26T01:19:50.067Z,15.05
2019-04-26T01:22:23.476Z,11.25
2019-04-26T01:24:54.965Z,15.20
2019-04-26T01:27:28.163Z,13.25
2019-04-26T01:30:01.610Z,16.50
2019-04-26T01:32:33.946Z,17.85
2019-04-26T01:35:06.001Z,13.48
2019-04-26T01:37:37.885Z,15.48
2019-04-26T01:40:11.035Z,20.25
2019-04-26T01:42:51.825Z,17.90
2019-04-26T01:45:41.787Z,14.38
2019-04-26T01:48:36.076Z,13.70
2019-04-26T01:51:07.955Z,13.38
2019-04-26T01:53:38.486Z,14.85
2019-04-26T01:56:08.867Z,10.25
2019-04-26T01:58:41.258Z,11.78
2019-04-26T02:01:13.217Z,13.88
2019-04-26T02:03:43.658Z,13.60
2019-04-26T02:06:24.931Z,15.20
2019-04-26T02:08:47.944Z,13.43
2019-04-26T02:11:19.993Z,15.20
2019-04-26T02:13:50.579Z,12.20
2019-04-26T02:16:21.011Z,17.05
2019-04-26T02:18:51.496Z,17.00
2019-04-26T02:21:24.727Z,15.43
2019-04-26T02:23:58.029Z,14.00
2019-04-26T02:26:39.153Z,14.03
2019-04-26T02:29:13.303Z,18.12
2019-04-26T02:31:47.519Z,13.05
2019-04-26T02:34:18.180Z,17.80
2019-04-26T02:36:57.712Z,15.00
2019-04-26T02:39:27.471Z,20.95
2019-04-26T02:41:59.686Z,16.62
2019-04-26T02:44:35.003Z,11.40
2019-04-26T02:47:41.808Z,12.95
2019-04-26T02:50:18.939Z,17.15
2019-04-26T02:53:07.591Z,12.73
2019-04-26T02:55:59.058Z,17.70
2019-04-26T02:58:33.774Z,17.55
2019-04-26T03:01:04.714Z,15.45
2019-04-26T03:03:36.388Z,19.42
2019-04-26T03:06:07.866Z,15.30
2019-04-26T03:08:39.518Z,15.20
2019-04-26T03:11:17.060Z,14.60
2019-04-26T03:13:49.715Z,18.27
2019-04-26T03:16:31.385Z,18.40
2019-04-26T03:19:22.261Z,18.73
2019-04-26T03:22:16.771Z,14.78
2019-04-26T03:24:59.099Z,12.80
2019-04-26T03:27:37.331Z,16.25
2019-04-26T03:30:21.148Z,14.68
2019-04-26T03:33:15.864Z,20.85
2019-04-26T03:36:02.715Z,17.37
2019-04-26T03:38:55.910Z,12.85
2019-04-26T03:42:04.126Z,24.85
2019-04-26T03:44:42.250Z,16.35
2019-04-26T03:47:15.663Z,13.72
2019-04-26T03:49:54.973Z,22.17
2019-04-26T03:53:02.683Z,15.68
2019-04-26T03:55:41.946Z,18.60
2019-04-26T03:58:29.634Z,20.50
2019-04-26T04:01:10.004Z,19.10
2019-04-26T04:03:47.853Z,16.12
2019-04-26T04:06:30.909Z,18.45
2019-04-26T04:09:08.932Z,17.37
2019-04-26T04:12:11.196Z,18.70
2019-04-26T04:14:40.731Z,17.00
2019-04-26T04:17:28.231Z,19.95
2019-04-26T04:20:15.308Z,22.05
2019-04-26T04:22:54.438Z,23.62
2019-04-26T04:25:39.252Z,25.75
2019-04-26T04:28:32.557Z,23.00
2019-04-26T04:31:14.857Z,21.00
2019-04-26T04:33:52.466Z,22.70
2019-04-26T04:36:27.024Z,24.23
2019-04-26T04:39:12.378Z,22.62
2019-04-26T04:41:53.984Z,20.92
2019-04-26T04:44:31.954Z,25.97
2019-04-26T04:47:23.737Z,28.38
2019-04-26T04:50:01.278Z,22.95
2019-04-26T04:52:55.602Z,28.57
2019-04-26T04:55:55.022Z,24.52
2019-04-26T04:58:31.310Z,21.17
2019-04-26T05:01:11.553Z,22.90
2019-04-26T05:04:04.500Z,23.00
2019-04-26T05:06:49.047Z,22.65
2019-04-26T05:09:34.786Z,22.25
2019-04-26T05:12:08.175Z,18.50
2019-04-26T05:14:56.672Z,27.02
2019-04-26T05:17:47.473Z,19.15
2019-04-26T05:20:30.248Z,21.15
2019-04-26T05:23:23.130Z,20.77
2019-04-26T05:26:31.151Z,28.45
2019-04-26T05:29:26.876Z,25.15
2019-04-26T05:32:17.795Z,28.00
2019-04-26T05:34:56.926Z,24.75
2019-04-26T05:37:53.042Z,26.02
2019-04-26T05:40:55.642Z,24.18
2019-04-26T05:44:16.276Z,36.63
2019-04-26T05:47:13.915Z,25.05
2019-04-26T05:50:22.317Z,34.60
2019-04-26T05:53:13.895Z,32.13
2019-04-26T05:56:14.352Z,27.50
2019-04-26T05:59:05.814Z,37.48
2019-04-26T06:02:06.699Z,26.50
2019-04-26T06:04:44.255Z,25.30
2019-04-26T06:07:31.243Z,31.75
2019-04-26T06:10:18.017Z,28.30
2019-04-26T06:13:20.280Z,21.20
2019-04-26T06:15:58.078Z,31.10
2019-04-26T06:18:35.702Z,20.35
2019-04-26T06:21:12.003Z,20.48
2019-04-26T06:23:55.510Z,27.77
2019-04-26T06:26:39.205Z,29.92
2019-04-26T06:29:38.513Z,21.02
2019-04-26T06:32:28.623Z,27.30
2019-04-26T06:35:24.144Z,23.67
2019-04-26T06:38:20.098Z,25.20
2019-04-26T06:40:54.579Z,25.60
2019-04-26T06:43:28.758Z,21.30
2019-04-26T06:46:30.794Z,25.45
2019-04-26T06:49:11.878Z,24.55
2019-04-26T06:52:00.408Z,31.25
2019-04-26T06:54:48.791Z,21.93
2019-04-26T06:58:05.673Z,27.75
2019-04-26T07:00:46.292Z,30.95
2019-04-26T07:03:42.598Z,23.92
2019-04-26T07:06:18.872Z,29.92
2019-04-26T07:09:11.721Z,38.58
2019-04-26T07:12:17.050Z,31.97
2019-04-26T07:15:28.631Z,27.85
2019-04-26T07:18:17.050Z,29.98
2019-04-26T07:21:16.436Z,32.15
2019-04-26T07:24:25.783Z,31.00
2019-04-26T07:27:26.060Z,30.43
2019-04-26T07:30:14.520Z,31.55
2019-04-26T07:32:57.141Z,50.20
2019-04-26T07:35:45.762Z,43.95
2019-04-26T07:39:15.528Z,46.55
2019-04-26T07:42:11.574Z,36.33
2019-04-26T07:45:05.580Z,34.38
2019-04-26T07:47:55.669Z,34.25
2019-04-26T07:50:40.815Z,30.70
2019-04-26T07:53:33.802Z,37.17
2019-04-26T07:56:19.262Z,43.83
2019-04-26T07:59:12.884Z,43.55
2019-04-26T08:02:22.599Z,53.20
2019-04-26T08:04:56.009Z,61.58
2019-04-26T08:07:32.659Z,43.20
2019-04-26T08:10:17.971Z,48.13
2019-04-26T08:13:10.087Z,47.85
2019-04-26T08:15:51.024Z,52.43
2019-04-26T08:18:28.525Z,39.70
2019-04-26T08:21:10.021Z,55.45
2019-04-26T08:23:41.673Z,36.70
2019-04-26T08:26:13.571Z,53.85
2019-04-26T08:28:45.478Z,51.68
2019-04-26T08:31:23.204Z,53.05
2019-04-26T08:33:54.693Z,51.33
2019-04-26T08:36:28.682Z,59.63
2019-04-26T08:39:01.656Z,45.78
2019-04-26T08:41:35.296Z,54.90
2019-04-26T08:44:17.220Z,52.58
2019-04-26T08:47:02.478Z,57.40
2019-04-26T08:49:40.094Z,50.03
2019-04-26T08:52:14.559Z,56.65
2019-04-26T08:54:48.760Z,70.78
2019-04-26T08:57:22.069Z,124.22
2019-04-26T08:59:55.717Z,74.70
2019-04-26T09:02:36.278Z,57.17
2019-04-26T09:05:11.280Z,48.52
2019-04-26T09:07:44.636Z,58.83
2019-04-26T09:10:16.823Z,54.55
2019-04-26T09:12:50.470Z,58.63
2019-04-26T09:15:40.623Z,59.00
2019-04-26T09:18:10.572Z,58.28
2019-04-26T09:20:42.792Z,59.58
2019-04-26T09:23:39.326Z,46.98
2019-04-26T09:26:12.878Z,66.65
2019-04-26T09:29:00.756Z,73.70
2019-04-26T09:31:34.224Z,54.63
2019-04-26T09:34:09.995Z,54.33
2019-04-26T09:36:39.817Z,66.67
2019-04-26T09:39:11.859Z,76.77
2019-04-26T09:41:42.304Z,68.10
2019-04-26T09:44:14.452Z,40.55
2019-04-26T09:46:48.503Z,76.92
2019-04-26T09:49:31.152Z,114.75
2019-04-26T09:52:02.821Z,62.88
2019-04-26T09:54:34.935Z,68.52
2019-04-26T09:57:05.363Z,49.20
2019-04-26T09:59:36.235Z,44.80
2019-04-26T10:02:09.575Z,43.02
2019-04-26T10:04:39.951Z,57.88
2019-04-26T10:07:10.500Z,62.15
2019-04-26T10:09:42.868Z,52.60
2019-04-26T10:12:17.908Z,38.13
2019-04-26T10:14:53.049Z,43.95
2019-04-26T10:17:25.129Z,63.48
2019-04-26T10:19:56.442Z,51.68
2019-04-26T10:22:28.584Z,52.00
2019-04-26T10:25:02.476Z,48.75
2019-04-26T10:27:36.313Z,55.30
2019-04-26T10:30:09.763Z,48.20
2019-04-26T10:32:40.229Z,40.43
2019-04-26T10:35:10.933Z,61.92
2019-04-26T10:37:43.918Z,76.77
2019-04-26T10:40:13.815Z,95.95
2019-04-26T10:42:45.666Z,70.95
2019-04-26T10:45:16.867Z,66.42
2019-04-26T10:47:47.323Z,114.22
2019-04-26T10:50:17.882Z,94.30
2019-04-26T10:53:06.286Z,65.75
2019-04-26T10:55:46.421Z,65.72
2019-04-26T10:58:21.492Z,48.55
2019-04-26T11:00:59.710Z,97.25
2019-04-26T11:03:30.089Z,94.00
2019-04-26T11:06:00.531Z,68.42
2019-04-26T11:08:30.979Z,62.40
2019-04-26T11:11:01.415Z,51.02
2019-04-26T11:13:31.855Z,53.83
2019-04-26T11:16:06.490Z,45.58
2019-04-26T11:18:34.341Z,66.77
2019-04-26T11:21:05.396Z,57.53
2019-04-26T11:23:35.785Z,45.78
2019-04-26T11:26:07.670Z,56.13
2019-04-26T11:28:38.173Z,54.10
2019-04-26T11:31:08.910Z,54.55
2019-04-26T11:33:44.742Z,55.00
2019-04-26T11:36:11.409Z,81.47
2019-04-26T11:38:41.791Z,73.37
2019-04-26T11:41:12.243Z,85.65
2019-04-26T11:43:42.671Z,78.15
2019-04-26T11:46:13.153Z,109.12
2019-04-26T11:48:43.526Z,74.90
2019-04-26T11:51:14.063Z,78.78
2019-04-26T11:53:44.937Z,64.40
2019-04-26T11:56:16.601Z,70.28
2019-04-26T11:58:47.001Z,72.22
2019-04-26T12:01:18.997Z,62.00
2019-04-26T12:04:07.314Z,80.45
2019-04-26T12:06:51.235Z,110.10
2019-04-26T12:09:27.287Z,91.37
2019-04-26T12:12:04.392Z,75.42
2019-04-26T12:14:33.503Z,74.72
2019-04-26T12:17:04.008Z,70.75
2019-04-26T12:19:34.805Z,64.42
2019-04-26T12:22:08.373Z,65.62
2019-04-26T12:24:37.531Z,59.25
2019-04-26T12:27:10.254Z,71.53
2019-04-26T12:29:40.100Z,68.30
2019-04-26T12:32:11.963Z,69.22
2019-04-26T12:34:42.414Z,67.12
2019-04-26T12:37:19.763Z,84.67
2019-04-26T12:39:45.128Z,76.90
2019-04-26T12:42:15.713Z,69.60
2019-04-26T12:44:53.687Z,113.50
2019-04-26T12:47:38.613Z,73.15
2019-04-26T12:50:09.981Z,59.83
2019-04-26T12:52:40.380Z,69.53
2019-04-26T12:55:13.911Z,44.05
2019-04-26T12:57:44.486Z,58.17
2019-04-26T13:00:16.780Z,78.12
2019-04-26T13:02:50.073Z,67.47
2019-04-26T13:05:21.017Z,71.60
2019-04-26T13:07:52.849Z,53.80
2019-04-26T13:10:41.092Z,79.72
2019-04-26T13:13:18.928Z,67.45
2019-04-26T13:15:56.994Z,65.83
2019-04-26T13:18:27.478Z,57.98
2019-04-26T13:20:58.657Z,70.57
2019-04-26T13:23:31.277Z,67.50
2019-04-26T13:26:01.962Z,51.75
2019-04-26T13:28:32.360Z,66.42
2019-04-26T13:31:02.852Z,80.92
2019-04-26T13:33:33.345Z,62.93
2019-04-26T13:36:03.938Z,54.88
2019-04-26T13:38:34.423Z,62.05
2019-04-26T13:41:06.341Z,59.95
2019-04-26T13:43:37.676Z,44.45
2019-04-26T13:46:15.438Z,45.00
2019-04-26T13:48:56.241Z,58.02
2019-04-26T13:51:28.255Z,42.98
2019-04-26T13:53:58.677Z,51.85
2019-04-26T13:56:32.056Z,55.35
2019-04-26T13:59:01.208Z,54.73
2019-04-26T14:01:33.124Z,52.83
2019-04-26T14:04:06.857Z,48.78
2019-04-26T14:06:35.745Z,79.82
2019-04-26T14:09:08.634Z,47.53
2019-04-26T14:11:39.177Z,57.88
2019-04-26T14:14:09.582Z,59.65
2019-04-26T14:16:41.478Z,48.95
2019-04-26T14:19:15.435Z,52.78
2019-04-26T14:21:44.312Z,56.48
2019-04-26T14:24:23.601Z,70.57
2019-04-26T14:26:55.912Z,48.25
2019-04-26T14:29:28.391Z,68.40
2019-04-26T14:31:58.436Z,51.90
2019-04-26T14:34:30.489Z,54.95
2019-04-26T14:37:06.670Z,43.58
2019-04-26T14:39:49.242Z,45.38
2019-04-26T14:42:05.570Z,40.48
2019-04-26T14:44:43.280Z,66.92
2019-04-26T14:47:14.715Z,53.00
2019-04-26T14:49:42.942Z,47.98
2019-04-26T14:52:12.530Z,54.45
2019-04-26T14:54:46.118Z,53.17
2019-04-26T14:57:21.424Z,65.97
2019-04-26T14:59:52.815Z,37.00
2019-04-26T15:02:24.992Z,60.95
2019-04-26T15:04:58.175Z,54.40
2019-04-26T15:07:32.488Z,40.23
2019-04-26T15:10:02.739Z,48.80
2019-04-26T15:12:45.889Z,48.33
2019-04-26T15:15:08.421Z,33.18
2019-04-26T15:17:38.905Z,44.42
2019-04-26T15:20:09.474Z,53.28
2019-04-26T15:22:46.294Z,41.68
2019-04-26T15:25:12.772Z,47.03
2019-04-26T15:27:44.180Z,33.15
2019-04-26T15:30:16.700Z,46.58
2019-04-26T15:32:47.110Z,44.42
2019-04-26T15:35:18.026Z,50.90
2019-04-26T15:37:48.675Z,47.33
2019-04-26T15:40:36.120Z,44.98
2019-04-26T15:43:18.646Z,48.70
2019-04-26T15:45:52.427Z,36.25
2019-04-26T15:48:27.470Z,52.93
2019-04-26T15:50:58.779Z,42.08
2019-04-26T15:53:33.197Z,42.03
2019-04-26T15:56:05.341Z,44.95
2019-04-26T15:58:38.623Z,49.90
2019-04-26T16:01:10.854Z,47.45
2019-04-26T16:03:40.927Z,40.10
2019-04-26T16:06:12.663Z,56.70
2019-04-26T16:08:43.979Z,47.17
2019-04-26T16:11:16.462Z,50.88
2019-04-26T16:13:54.177Z,43.20
2019-04-26T16:16:27.557Z,49.25
2019-04-26T16:18:55.979Z,45.85
2019-04-26T16:21:24.945Z,46.85
2019-04-26T16:23:55.568Z,50.90
2019-04-26T16:26:26.257Z,47.20
2019-04-26T16:29:04.209Z,54.58
2019-04-26T16:31:46.025Z,40.25
2019-04-26T16:34:23.265Z,47.10
2019-04-26T16:36:53.941Z,41.28
2019-04-26T16:39:28.447Z,54.65
2019-04-26T16:41:59.403Z,54.08
2019-04-26T16:44:31.310Z,46.08
2019-04-26T16:47:03.648Z,41.08
2019-04-26T16:49:35.052Z,54.05
2019-04-26T16:54:37.564Z,50.65
2019-04-26T16:57:11.299Z,58.35
2019-04-26T16:59:47.433Z,45.78
2019-04-26T17:02:15.604Z,45.10
2019-04-26T17:04:44.537Z,42.85
2019-04-26T17:07:21.956Z,57.38
2019-04-26T17:09:51.166Z,42.88
2019-04-26T17:09:59.030Z,47.17
2019-04-26T17:12:19.093Z,51.42
2019-04-26T17:14:49.518Z,46.50
2019-04-26T17:17:19.898Z,45.88
2019-04-26T17:19:52.086Z,60.75
2019-04-26T17:22:45.454Z,53.00
2019-04-26T17:25:23.725Z,48.65
2019-04-26T17:27:49.097Z,42.80
2019-04-26T17:30:21.156Z,44.18
2019-04-26T17:32:53.544Z,58.92
2019-04-26T17:35:25.412Z,43.23
2019-04-26T17:37:57.366Z,51.85
2019-04-26T17:40:35.954Z,49.25
2019-04-26T17:43:05.335Z,43.50
2019-04-26T17:45:36.324Z,56.13
2019-04-26T17:48:06.537Z,42.17
2019-04-26T17:50:38.988Z,46.95
2019-04-26T17:53:11.020Z,44.90
2019-04-26T17:55:45.847Z,44.67
2019-04-26T17:58:17.544Z,55.20
2019-04-26T18:00:47.309Z,58.10
2019-04-26T18:03:17.984Z,60.55
2019-04-26T18:05:56.676Z,52.95
2019-04-26T18:08:36.169Z,51.10
2019-04-26T18:10:52.894Z,51.18
2019-04-26T18:13:23.380Z,52.53
2019-04-26T18:15:53.802Z,57.30
2019-04-26T18:18:42.992Z,51.80
2019-04-26T18:21:33.478Z,52.83
2019-04-26T18:24:05.122Z,70.03
2019-04-26T18:26:35.585Z,55.00
2019-04-26T18:29:07.752Z,59.38
2019-04-26T18:31:38.146Z,65.87
2019-04-26T18:34:08.533Z,32.40
2019-04-26T18:36:38.958Z,38.67
2019-04-26T18:39:09.750Z,27.22
2019-04-26T18:41:40.150Z,32.78
2019-04-26T18:44:10.620Z,19.67
2019-04-26T18:46:47.285Z,23.70
2019-04-26T18:49:22.517Z,17.85
2019-04-26T18:51:50.116Z,21.48
2019-04-26T18:54:23.716Z,15.55
2019-04-26T18:56:58.514Z,17.60
2019-04-26T18:59:30.397Z,11.20
2019-04-26T19:02:00.778Z,12.73
2019-04-26T19:04:31.210Z,11.95
2019-04-26T19:07:01.667Z,20.48
2019-04-26T19:09:45.245Z,13.25
2019-04-26T19:12:05.596Z,10.95
2019-04-26T19:14:49.619Z,15.13
2019-04-26T19:17:18.696Z,19.73
2019-04-26T19:19:53.518Z,32.50
2019-04-26T19:22:24.191Z,14.90
2019-04-26T19:24:57.414Z,8.15
2019-04-26T19:27:27.698Z,47.15
2019-04-26T19:29:58.235Z,12.20
2019-04-26T19:32:31.468Z,13.00
2019-04-26T19:35:07.541Z,13.88
2019-04-26T19:37:36.959Z,18.27
2019-04-26T19:40:08.927Z,13.90
2019-04-26T19:42:39.719Z,13.70
2019-04-26T19:45:17.265Z,14.10
2019-04-26T19:47:45.738Z,17.27
2019-04-26T19:50:34.023Z,12.95
2019-04-26T19:53:16.615Z,26.37
2019-04-26T19:55:51.650Z,10.43
2019-04-26T19:58:38.841Z,9.25
2019-04-26T20:01:09.337Z,13.00
2019-04-26T20:03:42.609Z,10.53
2019-04-26T20:06:18.643Z,17.90
2019-04-26T20:08:49.363Z,11.78
2019-04-26T20:11:19.108Z,14.18
2019-04-26T20:13:51.855Z,11.00
2019-04-26T20:16:25.796Z,21.17
2019-04-26T20:18:55.457Z,19.82
2019-04-26T20:21:26.098Z,14.93
2019-04-26T20:23:56.474Z,11.95
2019-04-26T20:26:26.978Z,13.50
2019-04-26T20:28:57.366Z,18.82
2019-04-26T20:31:37.539Z,201.90
2019-04-26T20:34:10.915Z,14.78
2019-04-26T20:36:47.437Z,13.38
2019-04-26T20:39:16.562Z,18.40
2019-04-26T20:41:45.208Z,13.35
2019-04-26T20:44:15.677Z,12.43
2019-04-26T20:46:46.693Z,13.10
2019-04-26T20:49:19.245Z,5.72
2019-04-26T20:51:51.913Z,6.08
2019-04-26T20:54:22.555Z,11.60
2019-04-26T20:56:55.544Z,5.92
2019-04-26T20:59:25.064Z,4.97
2019-04-26T21:02:05.345Z,9.30
2019-04-26T21:04:36.829Z,9.18
2019-04-26T21:06:59.746Z,16.60
2019-04-26T21:09:30.285Z,8.90
2019-04-26T21:12:01.916Z,13.22
2019-04-26T21:14:32.516Z,4.10
2019-04-26T21:17:04.536Z,9.95
2019-04-26T21:19:35.111Z,8.75
2019-04-26T21:22:06.446Z,9.00
2019-04-26T21:24:38.390Z,6.72
2019-04-26T21:27:29.880Z,5.67
2019-04-26T21:30:11.172Z,9.95
2019-04-26T21:32:43.710Z,6.58
2019-04-26T21:35:15.838Z,6.08
2019-04-26T21:38:03.931Z,7.72
2019-04-26T21:40:38.825Z,6.08
2019-04-26T21:43:09.330Z,5.17
2019-04-26T21:45:40.541Z,5.85
2019-04-26T21:48:10.977Z,4.92
2019-04-26T21:50:41.378Z,6.20
2019-04-26T21:53:13.324Z,7.62
2019-04-26T21:55:43.946Z,9.00
2019-04-26T21:58:15.846Z,4.65
2019-04-26T22:00:50.950Z,6.37
2019-04-26T22:03:21.558Z,12.82
2019-04-26T22:05:51.953Z,5.33
2019-04-26T22:08:24.982Z,7.12
2019-04-26T22:10:56.171Z,6.65
2019-04-26T22:13:46.318Z,8.03
2019-04-26T22:16:37.194Z,6.83
2019-04-26T22:19:01.072Z,6.70
2019-04-26T22:21:33.986Z,3.77
2019-04-26T22:24:06.207Z,4.75
2019-04-26T22:26:40.444Z,6.65
2019-04-26T22:29:14.226Z,5.37
2019-04-26T22:31:42.403Z,9.18
2019-04-26T22:34:13.014Z,4.83
2019-04-26T22:36:43.962Z,7.10
2019-04-26T22:39:18.536Z,5.12
2019-04-26T22:41:49.037Z,57.55
2019-04-26T22:44:35.641Z,5.58
2019-04-26T22:47:14.096Z,4.25
2019-04-26T22:49:45.337Z,5.67
2019-04-26T22:52:16.645Z,7.12
2019-04-26T22:54:47.262Z,5.83
2019-04-26T22:57:17.798Z,4.12
2019-04-26T22:59:50.548Z,7.08
2019-04-26T23:02:26.142Z,7.62
2019-04-26T23:04:56.025Z,5.75
2019-04-26T23:07:26.209Z,5.92
2019-04-26T23:09:56.906Z,11.33
2019-04-26T23:12:46.414Z,7.28
2019-04-26T23:15:18.761Z,9.98
2019-04-26T23:18:03.665Z,4.03
2019-04-26T23:20:37.821Z,5.12
2019-04-26T23:23:08.623Z,4.58
2019-04-26T23:25:39.179Z,5.70
2019-04-26T23:28:09.616Z,4.42
2019-04-26T23:30:42.512Z,7.53
2019-04-26T23:33:15.139Z,2.98
2019-04-26T23:35:47.558Z,7.42
2019-04-26T23:38:17.872Z,4.42
2019-04-26T23:40:48.249Z,11.45
2019-04-26T23:43:24.090Z,3.77
2019-04-26T23:45:50.870Z,8.03
2019-04-26T23:48:21.269Z,3.42
2019-04-26T23:50:51.639Z,11.65
2019-04-26T23:53:24.010Z,15.88
2019-04-26T23:55:54.204Z,3.50
2019-04-26T23:58:24.729Z,6.05
